Austin, TX (78736)

2:25 AM CST on March 01, 2015 (GMT -0600)
The Natural Gardener | Change Station
CLOSE
Current Station
Personal Weather Station
Location: Austin, TX
Elevation: 967 ft
Nearby Weather Stations

Elev 967 ft 30.26 °N, 97.89 °W | Updated 1 second ago

Overcast
Overcast
33.1 °F
Feels Like 30 °F
N
3.2
Wind Variable Wind from NNW
Gusts 7.6 mph

Today
High -- | Low -- °F
--% Chance of Precip.
Yesterday
High -- | Low -- °F
Precip. -- in
6:57 AM 6:30 PM
Waxing Gibbous, 83% visible
Pressure 30.29 in
Visibility 3.0 miles
Clouds Overcast 700 ft
Windchill 30 °F
Dew Point 31 °F
Humidity 93%
Rainfall 0.00 in
Snow Depth Not available.
UV 0 out of 12
Pollen 8.30 out of 12
Air Quality Not available.
Flu Activity Not available.
METAR KATT 010751Z AUTO 34004KT 3SM -RA BR OVC007 02/01 A3026 RMK AO2 RAB0652E05B43 CIG 004V008 SLP256 P0000 T00170011 $

More Conditions Fewer Conditions

Pressure 30.29 in
Visibility 3.0 miles
Clouds Overcast 700 ft
Windchill 30 °F
Dew Point 31 °F
Humidity 93%
Rainfall 0.00 in
Snow Depth Not available.
UV 0 out of 12
Pollen 8.30 out of 12
Air Quality Not available.
Flu Activity Not available.
METAR KATT 010751Z AUTO 34004KT 3SM -RA BR OVC007 02/01 A3026 RMK AO2 RAB0652E05B43 CIG 004V008 SLP256 P0000 T00170011 $

More Conditions Fewer Conditions

10-Day Weather Forecast

Almanac

Astronomy

Mar. 01, 2015 Rise Set
Actual Time
Civil Twilight
Nautical Twilight
Astronomical Twilight
Moon
Length of Visible Light
Length of Day
Tomorrow will be .
, % of the Moon is Illuminated

Today's Extremes

State Highs State Lows

Community

WunderPhotos

Upload Photos

1,801,350 photos uploaded!

WunderBlogs® & News

Nearby

Air Quality

  Air Quality AQ Index Pollutant
Not available.

Snow Depth

Station Depth Elevation

Earthquake Activity

City Distance Mag. Time & Date
Minimum magnitude displayed is 2.5.

Coastal Water Temperatures

Place Temperature

Nearby Weather Stations